createdAt,value
2022-12-31T00:00:43.095Z,40.75
2022-12-31T00:03:11.579Z,40.84
2022-12-31T00:05:39.741Z,40.74
2022-12-31T00:08:09.283Z,40.84
2022-12-31T00:10:41.623Z,40.67
2022-12-31T00:13:10.896Z,40.82
2022-12-31T00:15:39.281Z,40.73
2022-12-31T00:18:08.122Z,40.85
2022-12-31T00:20:36.413Z,40.82
2022-12-31T00:23:04.543Z,40.72
2022-12-31T00:25:35.961Z,40.99
2022-12-31T00:28:04.507Z,40.81
2022-12-31T00:30:32.928Z,40.82
2022-12-31T00:33:01.125Z,40.82
2022-12-31T00:35:29.198Z,40.89
2022-12-31T00:37:57.297Z,40.89
2022-12-31T00:40:25.395Z,40.94
2022-12-31T00:42:54.928Z,40.79
2022-12-31T00:45:23.017Z,40.87
2022-12-31T00:47:51.276Z,40.84
2022-12-31T00:50:19.608Z,40.76
2022-12-31T00:52:47.675Z,40.91
2022-12-31T00:55:15.870Z,41.03
2022-12-31T00:57:43.941Z,40.95
2022-12-31T01:00:15.153Z,40.95
2022-12-31T01:02:43.420Z,40.90
2022-12-31T01:05:11.695Z,40.91
2022-12-31T01:07:39.829Z,41.03
2022-12-31T01:10:09.082Z,40.88
2022-12-31T01:12:37.219Z,40.89
2022-12-31T01:15:06.045Z,40.91
2022-12-31T01:17:35.983Z,41.04
2022-12-31T01:20:04.148Z,40.84
2022-12-31T01:22:32.223Z,40.89
2022-12-31T01:25:00.335Z,40.94
2022-12-31T01:27:28.430Z,40.89
2022-12-31T01:29:56.524Z,40.98
2022-12-31T01:32:24.631Z,40.99
2022-12-31T01:34:54.106Z,40.98
2022-12-31T01:37:22.215Z,40.83
2022-12-31T01:39:50.363Z,41.02
2022-12-31T01:42:18.566Z,40.89
2022-12-31T01:44:52.048Z,40.91
2022-12-31T01:47:26.881Z,41.04
2022-12-31T01:50:00.772Z,41.09
2022-12-31T01:52:31.888Z,40.92
2022-12-31T01:55:06.388Z,40.94
2022-12-31T01:57:35.540Z,41.04
2022-12-31T02:00:04.933Z,41.14
2022-12-31T02:02:33.203Z,40.89
2022-12-31T02:05:06.824Z,41.12
2022-12-31T02:07:35.013Z,41.01
2022-12-31T02:10:03.283Z,40.99
2022-12-31T02:12:31.420Z,40.95
2022-12-31T02:14:59.563Z,41.06
2022-12-31T02:17:35.364Z,41.17
2022-12-31T02:20:41.844Z,41.24
2022-12-31T02:23:33.752Z,41.15
2022-12-31T02:26:44.946Z,41.32
2022-12-31T02:29:59.496Z,41.26
2022-12-31T02:32:39.059Z,41.12
2022-12-31T02:35:12.129Z,40.96
2022-12-31T02:37:44.611Z,41.01
2022-12-31T02:40:16.598Z,41.10
2022-12-31T02:42:48.698Z,41.07
2022-12-31T02:45:24.060Z,41.05
2022-12-31T02:48:07.052Z,41.16
2022-12-31T02:50:55.565Z,41.17
2022-12-31T02:53:43.499Z,41.15
2022-12-31T02:56:21.222Z,41.10
2022-12-31T02:59:14.774Z,41.02
2022-12-31T03:02:04.944Z,41.07
2022-12-31T03:04:36.364Z,41.13
2022-12-31T03:07:06.753Z,41.15
2022-12-31T03:09:35.679Z,41.08
2022-12-31T03:12:22.732Z,41.17
2022-12-31T03:14:50.871Z,41.12
2022-12-31T03:17:19.179Z,41.11
2022-12-31T03:20:02.467Z,41.21
2022-12-31T03:22:30.977Z,41.22
2022-12-31T03:25:19.451Z,41.14
2022-12-31T03:27:48.704Z,41.02
2022-12-31T03:30:18.880Z,41.12
2022-12-31T03:32:48.322Z,41.10
2022-12-31T03:35:20.485Z,41.02
2022-12-31T03:37:49.817Z,41.16
2022-12-31T03:40:19.358Z,41.08
2022-12-31T03:42:47.699Z,41.21
2022-12-31T03:45:16.048Z,41.15
2022-12-31T03:47:44.168Z,41.02
2022-12-31T03:50:14.092Z,41.06
2022-12-31T03:52:43.868Z,41.29
2022-12-31T03:55:12.917Z,41.06
2022-12-31T03:57:41.613Z,41.03
2022-12-31T04:00:13.471Z,41.11
2022-12-31T04:02:41.904Z,41.14
2022-12-31T04:05:10.403Z,41.19
2022-12-31T04:07:38.604Z,41.14
2022-12-31T04:10:10.408Z,41.27
2022-12-31T04:12:38.803Z,41.16
2022-12-31T04:15:08.720Z,41.12
2022-12-31T04:17:36.855Z,41.09
2022-12-31T04:20:05.458Z,40.96
2022-12-31T04:22:33.558Z,41.14
2022-12-31T04:25:01.649Z,41.22
2022-12-31T04:27:31.056Z,41.14
2022-12-31T04:29:59.083Z,41.24
2022-12-31T04:32:27.156Z,41.15
2022-12-31T04:34:55.167Z,41.23
2022-12-31T04:37:23.234Z,41.11
2022-12-31T04:39:51.444Z,41.11
2022-12-31T04:42:19.477Z,41.19
2022-12-31T04:44:48.929Z,41.27
2022-12-31T04:47:21.875Z,41.16
2022-12-31T04:49:51.805Z,41.16
2022-12-31T04:52:19.872Z,41.15
2022-12-31T04:54:47.967Z,41.24
2022-12-31T04:57:16.120Z,41.20
2022-12-31T04:59:44.378Z,41.03
2022-12-31T05:02:14.006Z,41.19
2022-12-31T05:04:42.230Z,41.34
2022-12-31T05:07:10.313Z,41.16
2022-12-31T05:09:39.662Z,41.18
2022-12-31T05:12:07.976Z,41.25
2022-12-31T05:14:36.015Z,41.19
2022-12-31T05:17:04.105Z,41.23
2022-12-31T05:19:33.606Z,41.30
2022-12-31T05:22:21.057Z,41.27
2022-12-31T05:24:51.991Z,41.27
2022-12-31T05:27:20.108Z,41.27
2022-12-31T05:29:48.386Z,41.13
2022-12-31T05:32:16.451Z,41.29
2022-12-31T05:34:45.988Z,41.46
2022-12-31T05:37:14.074Z,41.31
2022-12-31T05:39:42.091Z,41.32
2022-12-31T05:42:10.205Z,41.35
2022-12-31T05:44:38.377Z,41.25
2022-12-31T05:47:06.585Z,41.11
2022-12-31T05:49:34.637Z,41.28
2022-12-31T05:52:04.195Z,41.45
2022-12-31T05:54:32.250Z,41.21
2022-12-31T05:57:00.564Z,41.29
2022-12-31T05:59:29.084Z,41.41
2022-12-31T06:01:57.240Z,41.37
2022-12-31T06:04:25.783Z,41.26
2022-12-31T06:06:54.499Z,41.17
2022-12-31T06:09:24.137Z,41.36
2022-12-31T06:11:52.399Z,41.40
2022-12-31T06:14:20.463Z,41.36
2022-12-31T06:16:48.617Z,41.36
2022-12-31T06:19:16.731Z,41.40
2022-12-31T06:21:44.811Z,41.42
2022-12-31T06:24:12.963Z,41.26
2022-12-31T06:26:42.453Z,41.30
2022-12-31T06:29:11.029Z,41.31
2022-12-31T06:31:39.354Z,41.31
2022-12-31T06:34:07.562Z,41.40
2022-12-31T06:36:35.661Z,41.43
2022-12-31T06:39:03.853Z,41.32
2022-12-31T06:41:32.959Z,41.38
2022-12-31T06:44:02.523Z,41.42
2022-12-31T06:46:30.656Z,41.33
2022-12-31T06:48:58.789Z,41.35
2022-12-31T06:51:26.926Z,41.41
2022-12-31T06:53:55.117Z,41.33
2022-12-31T06:56:33.161Z,41.28
2022-12-31T06:59:05.272Z,41.33
2022-12-31T07:01:52.474Z,41.50
2022-12-31T07:04:49.112Z,41.51
2022-12-31T07:07:22.532Z,41.44
2022-12-31T07:10:01.665Z,41.51
2022-12-31T07:13:00.809Z,41.51
2022-12-31T07:15:45.794Z,41.55
2022-12-31T07:18:24.606Z,41.48
2022-12-31T07:20:53.308Z,41.38
2022-12-31T07:23:22.003Z,41.37
2022-12-31T07:25:57.410Z,41.42
2022-12-31T07:28:43.109Z,41.58
2022-12-31T07:31:23.687Z,41.54
2022-12-31T07:34:00.595Z,41.44
2022-12-31T07:36:53.994Z,41.36
2022-12-31T07:39:29.551Z,41.49
2022-12-31T07:42:04.029Z,41.43
2022-12-31T07:44:41.818Z,41.40
2022-12-31T07:47:22.149Z,41.37
2022-12-31T07:49:50.836Z,41.34
2022-12-31T07:52:20.146Z,41.33
2022-12-31T07:54:48.317Z,41.45
2022-12-31T07:57:18.816Z,41.46
2022-12-31T07:59:58.168Z,41.47
2022-12-31T08:02:41.173Z,41.45
2022-12-31T08:05:18.020Z,41.46
2022-12-31T08:07:53.453Z,41.50
2022-12-31T08:10:32.088Z,41.58
2022-12-31T08:13:03.868Z,41.41
2022-12-31T08:15:32.556Z,41.32
2022-12-31T08:18:02.813Z,41.45
2022-12-31T08:20:33.745Z,41.49
2022-12-31T08:23:17.030Z,41.51
2022-12-31T08:26:00.429Z,41.57
2022-12-31T08:28:48.003Z,41.43
2022-12-31T08:31:20.510Z,41.41
2022-12-31T08:34:03.745Z,41.51
2022-12-31T08:36:45.619Z,41.36
2022-12-31T08:39:26.869Z,41.44
2022-12-31T08:41:58.060Z,41.41
2022-12-31T08:44:35.387Z,41.54
2022-12-31T08:47:14.638Z,41.60
2022-12-31T08:49:44.653Z,41.44
2022-12-31T08:52:17.412Z,41.65
2022-12-31T08:54:46.108Z,41.58
2022-12-31T08:57:23.005Z,41.54
2022-12-31T09:00:02.959Z,41.60
2022-12-31T09:02:48.365Z,41.65
2022-12-31T09:05:24.462Z,41.60
2022-12-31T09:08:03.970Z,41.46
2022-12-31T09:10:37.717Z,41.47
2022-12-31T09:13:16.541Z,41.61
2022-12-31T09:15:50.705Z,41.37
2022-12-31T09:18:19.355Z,41.53
2022-12-31T09:20:49.453Z,41.50
2022-12-31T09:23:18.108Z,41.47
2022-12-31T09:25:57.745Z,41.66
2022-12-31T09:28:40.562Z,41.61
2022-12-31T09:31:15.899Z,41.75
2022-12-31T09:33:52.755Z,41.45
2022-12-31T09:36:29.405Z,41.47
2022-12-31T09:39:07.632Z,41.51
2022-12-31T09:42:02.062Z,41.69
2022-12-31T09:44:57.964Z,41.77
2022-12-31T09:48:07.189Z,41.60
2022-12-31T09:50:54.714Z,41.78
2022-12-31T09:53:47.438Z,41.85
2022-12-31T09:56:24.174Z,41.59
2022-12-31T09:59:02.961Z,41.73
2022-12-31T10:01:44.088Z,41.66
2022-12-31T10:04:28.722Z,41.71
2022-12-31T10:07:14.843Z,41.70
2022-12-31T10:10:01.967Z,41.84
2022-12-31T10:12:54.039Z,41.83
2022-12-31T10:15:46.561Z,41.67
2022-12-31T10:18:25.237Z,41.59
2022-12-31T10:21:11.811Z,41.81
2022-12-31T10:24:01.173Z,41.83
2022-12-31T10:26:53.420Z,41.91
2022-12-31T10:29:32.923Z,41.37
2022-12-31T10:32:17.372Z,41.75
2022-12-31T10:34:55.438Z,41.85
2022-12-31T10:37:30.283Z,41.58
2022-12-31T10:40:11.908Z,41.61
2022-12-31T10:43:18.643Z,42.08
2022-12-31T10:46:25.559Z,42.09
2022-12-31T10:52:42.144Z,42.13
2022-12-31T10:55:47.093Z,42.41
2022-12-31T10:58:40.684Z,41.99
2022-12-31T11:01:14.773Z,41.88
2022-12-31T11:04:27.901Z,42.25
2022-12-31T11:07:35.864Z,42.34
2022-12-31T11:10:51.075Z,42.35
2022-12-31T11:13:55.815Z,42.24
2022-12-31T11:16:35.969Z,41.93
2022-12-31T11:19:14.795Z,41.99
2022-12-31T11:21:58.605Z,42.13
2022-12-31T11:24:35.622Z,41.91
2022-12-31T11:27:15.244Z,42.10
2022-12-31T11:30:03.720Z,42.21
2022-12-31T11:32:46.392Z,41.88
2022-12-31T11:35:23.348Z,42.00
2022-12-31T11:37:54.806Z,41.89
2022-12-31T11:40:35.051Z,42.04
2022-12-31T11:43:12.269Z,41.97
2022-12-31T11:46:02.297Z,42.11
2022-12-31T11:48:35.301Z,41.89
2022-12-31T11:51:25.988Z,42.22
2022-12-31T11:54:16.357Z,42.01
2022-12-31T11:56:51.716Z,41.92
2022-12-31T11:59:20.087Z,41.98
2022-12-31T12:01:56.225Z,41.90
2022-12-31T12:04:24.702Z,41.72
2022-12-31T12:06:53.722Z,41.70
2022-12-31T12:09:29.342Z,41.86
2022-12-31T12:12:02.853Z,41.99
2022-12-31T12:14:35.783Z,41.91
2022-12-31T12:17:09.116Z,41.88
2022-12-31T12:19:44.300Z,41.85
2022-12-31T12:22:14.376Z,41.95
2022-12-31T12:24:54.235Z,41.96
2022-12-31T12:27:25.617Z,41.81
2022-12-31T12:29:53.761Z,41.89
2022-12-31T12:32:25.953Z,41.84
2022-12-31T12:34:54.773Z,41.94
2022-12-31T12:37:32.430Z,41.99
2022-12-31T12:40:04.225Z,41.84
2022-12-31T12:42:32.892Z,41.85
2022-12-31T12:45:10.455Z,42.00
2022-12-31T12:47:43.678Z,41.88
2022-12-31T12:50:17.585Z,41.94
2022-12-31T12:53:04.849Z,42.05
2022-12-31T12:55:41.333Z,41.82
2022-12-31T12:58:23.284Z,41.85
2022-12-31T13:01:00.759Z,41.82
2022-12-31T13:04:32.369Z,41.87
2022-12-31T13:06:59.751Z,42.01
2022-12-31T13:09:41.665Z,41.98
2022-12-31T13:12:20.347Z,42.06
2022-12-31T13:14:58.528Z,41.88
2022-12-31T13:17:41.974Z,41.99
2022-12-31T13:20:20.489Z,41.98
2022-12-31T13:22:57.707Z,41.93
2022-12-31T13:25:33.602Z,41.97
2022-12-31T13:28:04.867Z,41.85
2022-12-31T13:30:37.529Z,41.80
2022-12-31T13:33:12.782Z,41.88
2022-12-31T13:35:47.427Z,42.03
2022-12-31T13:38:22.662Z,41.79
2022-12-31T13:40:57.684Z,41.77
2022-12-31T13:43:35.673Z,41.93
2022-12-31T13:46:11.899Z,41.90
2022-12-31T13:48:48.047Z,42.07
2022-12-31T13:51:26.025Z,42.00
2022-12-31T13:54:01.880Z,41.85
2022-12-31T13:56:36.949Z,41.91
2022-12-31T13:59:13.660Z,41.83
2022-12-31T14:01:46.274Z,41.85
2022-12-31T14:04:18.265Z,41.71
2022-12-31T14:06:51.743Z,41.79
2022-12-31T14:09:23.493Z,41.85
2022-12-31T14:12:22.574Z,42.00
2022-12-31T14:14:59.328Z,41.88
2022-12-31T14:17:33.051Z,41.86
2022-12-31T14:20:12.594Z,41.85
2022-12-31T14:22:48.732Z,41.88
2022-12-31T14:25:23.701Z,41.85
2022-12-31T14:27:58.174Z,41.83
2022-12-31T14:30:32.151Z,41.75
2022-12-31T14:33:38.983Z,42.03
2022-12-31T14:36:28.900Z,42.00
2022-12-31T14:39:17.367Z,42.00
2022-12-31T14:41:55.294Z,41.93
2022-12-31T14:44:35.339Z,41.84
2022-12-31T14:47:16.695Z,41.79
2022-12-31T14:49:51.377Z,41.83
2022-12-31T14:52:25.247Z,41.94
2022-12-31T14:55:03.119Z,41.98
2022-12-31T14:58:09.588Z,41.85
2022-12-31T15:00:31.415Z,41.87
2022-12-31T15:03:02.242Z,41.84
2022-12-31T15:05:32.353Z,41.86
2022-12-31T15:08:30.944Z,41.92
2022-12-31T15:11:23.974Z,41.86
2022-12-31T15:14:28.229Z,41.90
2022-12-31T15:17:08.255Z,41.76
2022-12-31T15:20:02.263Z,41.99
2022-12-31T15:22:39.304Z,41.78
2022-12-31T15:25:23.362Z,41.83
2022-12-31T15:27:53.752Z,41.69
2022-12-31T15:30:46.483Z,41.88
2022-12-31T15:33:31.462Z,41.86
2022-12-31T15:36:11.787Z,41.76
2022-12-31T15:38:41.266Z,41.76
2022-12-31T15:41:27.016Z,41.83
2022-12-31T15:44:02.519Z,41.84
2022-12-31T15:46:35.054Z,41.82
2022-12-31T15:49:11.780Z,41.74
2022-12-31T15:51:49.368Z,41.78
2022-12-31T15:54:32.969Z,42.00
2022-12-31T15:57:07.179Z,41.72
2022-12-31T15:59:41.282Z,41.68
2022-12-31T16:02:21.851Z,41.90
2022-12-31T16:04:51.119Z,41.62
2022-12-31T16:07:20.067Z,41.87
2022-12-31T16:09:53.325Z,41.80
2022-12-31T16:12:29.302Z,41.71
2022-12-31T16:15:03.584Z,41.73
2022-12-31T16:17:33.721Z,41.75
2022-12-31T16:20:03.181Z,41.89
2022-12-31T16:22:38.778Z,41.72
2022-12-31T16:25:30.309Z,41.71
2022-12-31T16:27:58.267Z,41.79
2022-12-31T16:30:30.241Z,41.75
2022-12-31T16:33:01.386Z,41.73
2022-12-31T16:35:31.349Z,41.90
2022-12-31T16:38:13.552Z,41.77
2022-12-31T16:40:42.972Z,41.69
2022-12-31T16:43:26.115Z,41.87
2022-12-31T16:45:58.319Z,41.73
2022-12-31T16:48:26.793Z,41.75
2022-12-31T16:50:57.699Z,41.51
2022-12-31T16:53:30.168Z,41.73
2022-12-31T16:56:03.558Z,41.85
2022-12-31T16:58:34.511Z,41.73
2022-12-31T17:01:12.575Z,41.78
2022-12-31T17:03:45.743Z,41.73
2022-12-31T17:06:16.444Z,41.76
2022-12-31T17:08:46.144Z,41.71
2022-12-31T17:11:36.605Z,41.93
2022-12-31T17:14:14.912Z,41.82
2022-12-31T17:17:01.602Z,41.79
2022-12-31T17:19:38.878Z,41.86
2022-12-31T17:22:11.460Z,41.83
2022-12-31T17:24:40.372Z,41.69
2022-12-31T17:27:10.774Z,41.69
2022-12-31T17:29:39.121Z,41.71
2022-12-31T17:32:28.295Z,41.92
2022-12-31T17:34:56.693Z,41.75
2022-12-31T17:37:29.054Z,41.79
2022-12-31T17:40:40.591Z,41.71
2022-12-31T17:42:50.351Z,41.80
2022-12-31T17:45:22.406Z,41.76
2022-12-31T17:47:55.702Z,41.79
2022-12-31T17:50:25.964Z,41.67
2022-12-31T17:52:57.215Z,41.51
2022-12-31T17:55:26.711Z,41.85
2022-12-31T17:57:57.933Z,41.83
2022-12-31T18:00:28.322Z,41.75
2022-12-31T18:02:58.477Z,41.65
2022-12-31T18:05:27.433Z,41.78
2022-12-31T18:07:56.904Z,41.59
2022-12-31T18:10:27.704Z,41.90
2022-12-31T18:12:55.883Z,41.69
2022-12-31T18:15:25.698Z,41.76
2022-12-31T18:17:53.880Z,41.78
2022-12-31T18:20:24.321Z,41.75
2022-12-31T18:22:53.441Z,41.91
2022-12-31T18:25:23.887Z,41.82
2022-12-31T18:27:52.983Z,41.86
2022-12-31T18:30:21.296Z,41.68
2022-12-31T18:32:49.782Z,41.87
2022-12-31T18:36:06.677Z,41.69
2022-12-31T18:38:14.019Z,41.80
2022-12-31T18:40:44.466Z,41.71
2022-12-31T18:43:17.484Z,41.60
2022-12-31T18:45:46.157Z,41.76
2022-12-31T18:48:14.702Z,41.76
2022-12-31T18:50:43.490Z,41.61
2022-12-31T18:53:17.836Z,41.75
2022-12-31T18:55:48.950Z,41.75
2022-12-31T18:58:17.526Z,41.70
2022-12-31T19:00:46.693Z,41.71
2022-12-31T19:03:16.884Z,41.60
2022-12-31T19:05:49.322Z,41.80
2022-12-31T19:08:18.847Z,41.73
2022-12-31T19:10:47.718Z,41.79
2022-12-31T19:13:17.452Z,41.58
2022-12-31T19:15:48.296Z,41.74
2022-12-31T19:18:16.929Z,41.62
2022-12-31T19:20:45.313Z,41.75
2022-12-31T19:23:16.524Z,41.89
2022-12-31T19:25:47.850Z,41.70
2022-12-31T19:28:18.691Z,41.68
2022-12-31T19:30:47.286Z,41.72
2022-12-31T19:33:16.359Z,41.69
2022-12-31T19:35:45.434Z,41.64
2022-12-31T19:38:19.065Z,41.67
2022-12-31T19:40:49.473Z,41.66
2022-12-31T19:43:19.723Z,41.72
2022-12-31T19:45:48.835Z,41.68
2022-12-31T19:48:24.655Z,41.74
2022-12-31T19:50:57.097Z,41.68
2022-12-31T19:53:27.340Z,41.61
2022-12-31T19:55:57.000Z,41.74
2022-12-31T19:58:26.905Z,41.67
2022-12-31T20:01:02.357Z,41.69
2022-12-31T20:03:32.692Z,41.72
2022-12-31T20:06:06.458Z,41.72
2022-12-31T20:08:34.908Z,41.69
2022-12-31T20:11:10.407Z,41.60
2022-12-31T20:13:39.145Z,41.72
2022-12-31T20:16:08.877Z,41.67
2022-12-31T20:18:38.259Z,41.67
2022-12-31T20:21:10.637Z,41.69
2022-12-31T20:23:39.008Z,41.66
2022-12-31T20:26:08.013Z,41.67
2022-12-31T20:28:39.147Z,41.60
2022-12-31T20:31:08.506Z,41.70
2022-12-31T20:33:37.248Z,41.71
2022-12-31T20:36:06.939Z,41.62
2022-12-31T20:38:35.494Z,41.78
2022-12-31T20:41:07.744Z,41.61
2022-12-31T20:43:38.302Z,41.65
2022-12-31T20:46:15.424Z,41.67
2022-12-31T20:48:44.420Z,41.71
2022-12-31T20:51:13.916Z,41.60
2022-12-31T20:53:49.536Z,41.69
2022-12-31T20:56:18.555Z,41.61
2022-12-31T20:58:48.543Z,41.49
2022-12-31T21:01:17.302Z,41.61
2022-12-31T21:06:36.032Z,41.55
2022-12-31T21:09:05.701Z,41.76
2022-12-31T21:11:51.526Z,41.61
2022-12-31T21:14:21.197Z,41.60
2022-12-31T21:16:49.254Z,41.51
2022-12-31T21:19:17.301Z,41.65
2022-12-31T21:21:45.385Z,41.69
2022-12-31T21:24:16.363Z,41.55
2022-12-31T21:26:47.142Z,41.59
2022-12-31T21:29:15.252Z,41.70
2022-12-31T21:31:44.680Z,41.62
2022-12-31T21:34:12.916Z,41.60
2022-12-31T21:36:40.939Z,41.65
2022-12-31T21:39:09.013Z,41.53
2022-12-31T21:41:54.895Z,41.56
2022-12-31T21:44:24.971Z,41.60
2022-12-31T21:47:36.532Z,41.60
2022-12-31T21:50:07.873Z,41.59
2022-12-31T21:52:36.401Z,41.59
2022-12-31T21:55:23.886Z,41.54
2022-12-31T21:58:28.153Z,41.67
2022-12-31T22:00:59.333Z,41.68
2022-12-31T22:03:29.163Z,41.61
2022-12-31T22:06:00.555Z,41.51
2022-12-31T22:08:30.023Z,41.52
2022-12-31T22:10:58.324Z,41.42
2022-12-31T22:13:26.591Z,41.51
2022-12-31T22:16:03.922Z,41.59
2022-12-31T22:18:36.011Z,41.72
2022-12-31T22:21:15.506Z,41.53
2022-12-31T22:23:47.651Z,41.56
2022-12-31T22:26:18.413Z,41.51
2022-12-31T22:28:47.660Z,41.41
2022-12-31T22:31:17.130Z,41.56
2022-12-31T22:33:46.910Z,41.61
2022-12-31T22:36:16.673Z,41.57
2022-12-31T22:38:45.461Z,41.52
2022-12-31T22:41:15.710Z,41.61
2022-12-31T22:43:45.455Z,41.64
2022-12-31T22:46:16.457Z,41.52
2022-12-31T22:48:44.593Z,41.51
2022-12-31T22:51:15.980Z,41.51
2022-12-31T22:53:44.554Z,41.47
2022-12-31T22:56:15.676Z,41.57
2022-12-31T22:58:44.362Z,41.59
2022-12-31T23:01:18.204Z,41.63
2022-12-31T23:03:47.157Z,41.49
2022-12-31T23:06:17.700Z,41.56
2022-12-31T23:09:06.244Z,41.52
2022-12-31T23:11:35.313Z,41.56
2022-12-31T23:14:22.049Z,41.51
2022-12-31T23:17:29.733Z,41.47
2022-12-31T23:20:13.768Z,41.47
2022-12-31T23:23:00.699Z,41.50
2022-12-31T23:25:28.859Z,41.44
2022-12-31T23:27:57.232Z,41.47
2022-12-31T23:30:25.422Z,41.52
2022-12-31T23:32:53.651Z,41.65
2022-12-31T23:35:21.917Z,41.39
2022-12-31T23:37:51.652Z,41.43
2022-12-31T23:40:21.741Z,41.45
2022-12-31T23:42:50.357Z,41.42
2022-12-31T23:45:18.810Z,41.42
2022-12-31T23:47:47.507Z,41.40
2022-12-31T23:50:15.852Z,41.43
2022-12-31T23:52:44.001Z,41.59
2022-12-31T23:55:13.745Z,41.36
2022-12-31T23:57:42.221Z,41.56
